首页
METAR-TAF:

METAR-TAF

机场 :

美熹德, 加利福尼亚州, 美国

纬度: 37-22N, 经度: 120-34W, 海拔: 57米

当前天气观测

该预报发布于14小时和38分钟前的20:53 UTC
风速11节,风向西转西北
温度 30°C
湿度 19%
气压 1008 hPa
能見度: 16.1公里
天空无云

METAR: KMER 182053Z 30011KT 10SM CLR 30/04 A2978

时间: 04:31 (11:31 UTC)

预报

该预报发布于6小时和11分钟前的05:20 UTC
预报有效从19日的 06点(UTC)到 20日的 06点(UTC)
风速6节,风向西北
能見度: 10公里
天空无云

TAF: KMER 190520Z 1906/2006 32006KT P6SM SKC AMD NOT SKED

超过4000个机场的气象观测和天气预报(METAR&TAF报告)。

可查询的气象台以黄色和红色小点在地图上表示。

将鼠标移到小点上方,可查看气象台名称。

然后点击查看天气观测和预报。

如需切换地图:点击带黑十字的绿色按钮放大地图;点击带横线的绿色按钮缩小地图;或者点击绿色箭头查看邻近地区的地图。


METAR-TAF: